Choose a state:
Most recent flow and stage for Georgia
(Stations highlighted in red are currently above flood stage)
USGS
station
ID
USGS station name NWS
flood
stage
(ft)
Most recent
stage
(ft)
Most recent
flow
(cfs)
Historical
peaks
(cfs)
Most recent
local
date/time
NWS
station
ID
02176930 CHATTOOGA RIVER AT BURRELLS FORD,NR PINE MTN,GA   0.82 64 4,120 2016-05-30 15:00:00 BURG1
02177000 CHATTOOGA RIVER NEAR CLAYTON, GA 15 1.40 269 33,300 2016-05-30 14:00:00 CYNG1
02178400 TALLULAH RIVER NEAR CLAYTON, GA 20 2.06 96 8,500 2016-05-30 14:45:00 TCLG1
02181350 TALLULAH R AT TERRORA PWRHSE, NR TALLULAH FALLS,GA   2.07 52   2016-05-30 14:30:00  
02181580 TALLULAH RIVER AB POWERHOUSE, NR TALLULAH FALLS,GA 36 5.11 37 21,000 2016-05-30 14:15:00 TFLG1
02188600 BEAVERDAM CREEK ABOVE ELBERTON, GA 9 2.59 36 4,100 2016-05-30 15:00:00 BVDG1
02191227 GROVE CREEK AT US 441 AND GA 15 NEAR COMMERCE, GA 15 6.62 25   2016-05-30 14:15:00  
02191300 BROAD RIVER ABOVE CARLTON, GA 15 2.94 651 70,000 2016-05-30 14:45:00 CARG1
02191740 CLOUDS CREEK AT WATSON MILL PARK NR CARLTON, GA 38 33.50 23 301 2016-05-30 15:00:00  
02191743 SOUTH FORK BROAD RIVER AT CARLTON, GA 12 1.94 90 3,830 2016-05-30 14:00:00  
02192000 BROAD RIVER NEAR BELL, GA 26 4.54 811 79,400 2016-05-30 14:30:00 BELG1
02193340 KETTLE CREEK NEAR WASHINGTON, GA 14 3.24 6.7 4,150 2016-05-30 14:45:00 KETG1
02193500 LITTLE RIVER NEAR WASHINGTON, GA 19 4.39 30 15,500 2016-05-30 14:00:00 WTNG1
02195320 KIOKEE CREEK AT GA 104, NEAR EVANS, GA 19 0.64 19 9,260 2016-05-30 15:00:00 EVNG1
02195520 SAVANNAH RIVER NEAR EVANS, GA   13.69

 

  2016-05-30 14:00:00 EVSG1
021964832 SAVANNAH RIVER ABOVE AUGUSTA CANAL NEAR BONAIR,GA   157.26 2,950   2016-05-30 14:00:00  
02196485 AUGUSTA CANAL NR AUGUSTA (UPPER)   5.73 2,130 4,820 2016-05-30 13:30:00 ACCG1
02196835 BUTLER CREEK BELOW 7TH AVENUE, AT FT. GORDON, GA   2.03 12 510 2016-05-30 14:45:00 FRTG1
02196838 BUTLER CREEK RESERVOIR AT FORT GORDON, GA   27.74

 

  2016-05-30 14:00:00 FORG1
02196999 SAVANNAH RV ABOVE NEW SAV. LOCK AND DAM   114.10

 

  2016-05-30 13:30:00 NSLG1
02197000 SAVANNAH RIVER AT AUGUSTA, GA 117.5 98.04 4,380 350,000 2016-05-30 13:30:00  
02197020 SPIRIT CREEK AT US 1, NEAR AUGUSTA, GA 12 3.10 19 4,070 2016-05-30 14:00:00 SPTG1
021973269 SAVANNAH RIVER NEAR WAYNESBORO, GA   9.40 7,100 23,900 2016-05-30 14:15:00 GIRG1
02197500 SAVANNAH R AT BURTONS FERRY BR NR MILLHAVEN, GA 15 8.30 8,630 220,000 2016-05-30 14:00:00 BFYG1
02197598 BRUSHY CREEK AT CAMPGROUND ROAD, NEAR WRENS, GA   1.76 11 453 2016-05-30 14:15:00 WRNG1
02197830 BRIER CREEK NEAR WAYNESBORO, GA 11 7.06 465 48,000 2016-05-30 14:30:00 BCWG1
02198000 BRIER CREEK AT MILLHAVEN, GA   6.26 1,150 64,000 2016-05-30 15:00:00 BRIG1
02198100 BEAVERDAM CREEK NEAR SARDIS, GA   5.42 232 4,070 2016-05-30 14:00:00 SARG1
02198375 SAVANNAH RIVER NEAR ESTILL, SC   8.69 10,700 15,600 2016-05-30 13:00:00 ESLS1
02198500 SAVANNAH RIVER NEAR CLYO, GA 11 8.69 11,000 270,000 2016-05-30 13:00:00 CLYG1
02198690 EBENEZER CREEK AT SPRINGFIELD, GA   12.84 1,700 8,960 2016-05-30 15:00:00 EBZG1
02198759 BEAR CREEK AT HICKORY BEND, NEAR RINCON, GA   8.82 315   2016-05-30 14:45:00  
02198810 ABERCORN CREEK NEAR SAVANNAH,GA   2.95 -2,390   2016-05-30 14:45:00 ACRG1
02198820 ABERCORN CREEK AT MOUTH NEAR SAVANNAH, GA   3.09

 

  2016-05-30 15:00:00  
02198840 SAVANNAH RIVER NEAR PORT WENTWORTH, GA   3.18

 

  2016-05-30 14:45:00 PTWG1
02198920 SAVANNAH RIVER AT GA 25, AT PORT WENTWORTH, GA   2.43 -29,600 2016-05-30 14:15:00 PWNG1
02198950 MIDDLE RIVER AT GA 25 AT PORT WENTWORTH, GA   3.21 -9,980   2016-05-30 14:30:00 MDRG1
02198955 MIDDLE RIVER AT "FISH HOLE" AT PORT WENTWORTH, GA   4.14

 

  2016-05-30 15:00:00  
021989715 SAVANNAH RIVER AT GARDEN CITY, GA   3.66

 

  2016-05-30 14:45:00  
021989773 SAVANNAH RIVER AT USACE DOCK, AT SAVANNAH, GA   3.60 -60,800   2016-05-30 15:00:00 SVDG1
021989784 L BACK RIVER ABOVE LUCKNOW CANAL, NR LIMEHOUSE, SC   2.62

 

  2016-05-30 14:30:00 LUCS1
021989791 LITTLE BACK RIVER AT F&W DOCK, NEAR LIMEHOUSE, SC   3.03

 

  2016-05-30 14:45:00 FWDS1
021989792 LITTLE BACK RIVER AT GA 25 AT PORT WENTWORTH, GA   2.73 -5,110   2016-05-30 14:30:00 LBVG1
0219897993 SAVANNAH RIVER AT ELBA ISLAND, NEAR SAVANNAH, GA   2.92

 

  2016-05-30 14:30:00  
02198980 SAVANNAH RIVER AT FORT PULASKI, GA   2.65 -227,000   2016-05-30 14:15:00 FTPG1
02199000 SOUTH CHANNEL (SAVANNAH RIVER) NEAR SAVANNAH, GA   2.67

 

  2016-05-30 14:15:00 EBAG1
02200120 OGEECHEE RIVER AT GA 88, NEAR GRANGE, GA 18 7.52 83 7,550 2016-05-30 14:15:00 GRGG1
02201000 WILLIAMSON SWAMP CREEK AT DAVISBORO, GA 10 2.51 34 9,200 2016-05-30 14:45:00 DAVG1
02201230 OGEECHEE RIVER AT MIDVILLE, GA 6 1.53 345 59,000 2016-05-30 14:00:00 MDVG1
02202040 OGEECHEE RIVER AT ROCKY FORD RD, NR ROCKY FORD, GA 13 6.17 1,150 75,000 2016-05-30 14:00:00 RFDG1
02202190 OGEECHEE RIVER AT GA 24, NEAR OLIVER, GA   12.89 4,340 76,000 2016-05-30 14:30:00 OLVG1
02202500 OGEECHEE RIVER NEAR EDEN, GA 11 10.48 4,430 78,000 2016-05-30 14:15:00 EDEG1
02202600 BLACK CREEK NEAR BLITCHTON, GA   10.15 2,030 11,100 2016-05-30 14:15:00 BLIG1
02202680 OGEECHEE RIVER AT GA 204, NEAR ELLABELL, GA   8.44 2,860 80,000 2016-05-30 14:15:00 ELLG1
02203000 CANOOCHEE RIVER NEAR CLAXTON, GA 11 1.63 44 20,500 2016-05-30 14:15:00 CNOG1
02203518 CANOOCHEE RIVER AT BRIDGE 38, AT FORT STEWART, GA   6.72 270 14,700 2016-05-30 14:30:00  
02203536 OGEECHEE RIVER AT US 17, NEAR RICHMOND HILL, GA   -0.12 -5,880 110,000 2016-05-30 14:15:00 RICG1
02203559 PEACOCK CREEK AT MCINTOSH, GA   4.07 1.9 1,400 2016-05-30 14:15:00 MTHG1
022035975 HUDSON CREEK AT MERIDIAN LANDING, NEAR MERIDIAN,GA   1.77

 

  2016-05-30 14:45:00 MERG1
02203603 SOUTH RIVER AT SPRINGDALE ROAD, AT ATLANTA, GA 17 2.57

 

2016-05-30 14:15:00 SEPG1
02203655 SOUTH RIVER AT FORREST PARK ROAD, AT ATLANTA, GA 15 2.98 12 3,400 2016-05-30 14:15:00 STHG1
02203700 INTRENCHMENT CREEK NEAR ATLANTA, GA 11 2.18 3.0 41,000 2016-05-30 14:15:00 INTG1
02203831 DOOLITTLE CREEK AT FLAT SHOALS RD, NR DECATUR, GA 8 1.04

 

  2016-05-28 15:00:00  
02203863 SHOAL CREEK AT COLUMBIA DRIVE NEAR ATLANTA, GA 11 3.52 5.2 565 2016-05-30 14:15:00 SHOG1
02203873 COBBS CREEK AT RAINBOW DR, NEAR DECATUR, GA   1.92

 

  2016-05-30 14:30:00  
02203900 SOUTH RIVER AT FLAKES MILL ROAD NR ATLANTA, GA 13 2.34 52 12,500 2016-05-30 14:00:00  
02203950 SNAPFINGER CREEK NEAR DECATUR, GA 12 2.70 6.7 3,800 2016-05-30 14:15:00 SFCG1
02203960 SNAPFINGER CR AT THOMPSON MILL RD NR LITHONIA, GA 16 3.31 16 1,410 2016-05-30 14:30:00  
02204037 POLE BRIDGE CR AT EVANS MILL RD NEAR LITHONIA, GA 8 1.23 7.5   2016-05-30 14:30:00  
02204070 SOUTH RIVER AT KLONDIKE ROAD, NEAR LITHONIA, GA 12 5.16 131 17,000 2016-05-30 14:45:00 SOUG1
02204130 HONEY CREEK AT GA 212, NEAR CONYERS, GA 9 2.16 24 3,090 2016-05-30 14:45:00 HONG1
02204285 PATES CREEK NEAR FLIPPEN, GA 12 1.08 22 4,400 2016-05-30 14:45:00 FLPG1
02204520 SOUTH RIVER AT GA 81, AT SNAPPING SHOALS, GA 12 6.89 ***   2016-05-30 14:15:00 SPGG1
02205522 PEW CREEK AT PATTERSON RD, NEAR LAWRENCEVILLE, GA 11 3.41

 

5,000 2016-05-30 14:15:00 LAWG1
02205865 SWEETWATER CREEK AT CLUB DRIVE NEAR LILBURN, GA 11 2.69 6.6 3,600 2016-05-30 14:15:00 STWG1
02207120 YELLOW RIVER AT GA 124, NEAR LITHONIA, GA 15 3.12 110 16,500 2016-05-30 14:45:00 YELG1
02207130 STONE MTN CR AT SILVER HILL RD, NEAR STONE MTN, GA 9 2.97

 

  2016-05-30 14:30:00  
02207135 LITTLE STONE MTN CR NEAR STONE MOUNTAIN, GA 8 2.30 1.1   2016-05-30 14:30:00  
02207160 STONE MOUNTAIN CREEK AT GA24 NEAR LITHONIA, GA 12 3.64 12 1,500 2016-05-30 14:45:00  
02207185 NO BUSINESS CREEK AT LEE ROAD, BELOW SNELLVILLE,GA 9 3.14 7.4 1,800 2016-05-30 14:45:00 NOBG1
02207200 SWIFT CREEK NEAR LITHONIA, GA 9 0.57

 

800 2016-05-30 14:30:00  
02207220 YELLOW RIVER AT PLEASANT HILL ROAD, NR LITHONIA,GA 13 1.64 152 22,900 2016-05-30 14:45:00 YLOG1
02207300 YELLOW RIVER AT MILSTEAD, GA   5.34

 

  2016-05-30 14:30:00 MSDG1
02207335 YELLOW RIVER AT GEES MILL ROAD, NEAR MILSTEAD, GA 11 2.00 193 20,800 2016-05-30 14:30:00 MYRG1
02207385 BIG HAYNES CREEK AT LENORA ROAD, NR SNELLVILLE, GA 10 2.91 13 1,750 2016-05-30 14:00:00 BIGG1
02207400 BRUSHY FORK CREEK AT BEAVER ROAD, NR LOGANVILLE,GA 9 1.29 3.7 782 2016-05-30 14:00:00 LOGG1
02207414 RANDY POYNTER LAKE AT SPILLWAY, NEAR MILSTEAD, GA   734.15

 

  2016-05-30 15:00:00  
02207418 BIG HAYNES CREEK AT JACK TURNER DAM,NR MILSTEAD GA 7 2.24 28 1,820 2016-05-30 14:00:00 MBHG1
02207435 LITTLE HAYNES CREEK AT DIAL MILL RD NR MILSTEAD GA 10 3.31 17 2,530 2016-05-30 14:45:00 MLHG1
02207448 BIG HAYNES CREEK AT BALD ROCK ROAD, NR MILSTEAD GA 12 1.89 23   2016-05-30 14:00:00 BHCG1
02208000 YELLOW RIVER ROCKY PLAINS RD NR ROCKY PLAINS, GA 18 4.05 220 7,730 2016-05-30 14:15:00 RKYG1
02208050 ALCOVY RIVER NEAR LAWRENCEVILLE, GA 15 -0.80

 

2,200 2016-05-30 14:30:00 LWRG1
02208130 SHOAL CREEK AT PAPER MILL RD, NR LAWRENCEVILLE, GA 11 1.73

 

2,280 2016-05-30 14:30:00 LAVG1
02208150 ALCOVY RIVER AT NEW HOPE ROAD, NEAR GRAYSON, GA 9 2.57 19 8,630 2016-05-30 14:45:00 ALCG1
02208450 ALCOVY RIVER ABOVE COVINGTON, GA 12 1.99 68 7,620 2016-05-30 15:00:00 ACYG1
02208485 CORNISH CREEK AT LOWER JERSEY RD, NR COVINGTON, GA 11 1.93

 

  2016-05-30 14:45:00  
02208487 LITTLE CORNISH CR (COUNTY ROAD 95) NR OXFORD, GA 9 0.44 1.6 161 2016-05-30 14:30:00  
02208493 CORNISH CREEK AT HAZELBRAND RD NR COVINGTON, GA 14 6.43 6.7 710 2016-05-30 14:00:00 CNCG1
02209000 ALCOVY RIVER BELOW COVINGTON, GA 11 2.11 80 12,400 2016-05-30 14:15:00 HPTG1
02209360 EAST BEAR CREEK AT POPLAR ROAD, NR MANSFIELD, GA 9 0.83 2.1 2016-05-30 14:00:00 EBCG1
02210500 OCMULGEE RIVER NEAR JACKSON, GA 19 4.27 700 69,000 2016-05-30 14:30:00 JACG1
02211375 CABIN CREEK AT NORTH SECOND STREET, NR GRIFFIN, GA 13 3.66 2.7 2,250 2016-05-30 14:00:00 GFNG1
02211800 TOWALIGA RIVER AT GA 83 NEAR JULIETTE, GA 16 2.54 176 9,680 2016-05-30 14:45:00 TOWG1
02212600 FALLING CREEK NEAR JULIETTE, GA 13 1.47 11 7,920 2016-05-30 14:45:00 FALG1
02212735 OCMULGEE RIVER AT GA 18, AT DAMES FERRY, GA 16 3.69 906 80,000 2016-05-30 14:00:00 DFYG1
02213000 OCMULGEE RIVER AT MACON, GA 18 6.86 814 107,000 2016-05-30 14:30:00 MACG1
02213500 TOBESOFKEE CREEK NEAR MACON, GA 20 2.12 13 54,000 2016-05-30 14:45:00 TOBG1
02214075 ECHECONNEE CREEK AT HOUSTON RD, NEAR BYRON, GA 15 7.14 113 2,030 2016-05-30 14:15:00 BYNG1
02214590 BIG INDIAN CREEK AT US 341, NEAR CLINCHFIELD, GA 30 14.50 61 1,580 2016-05-30 14:15:00 CLFG1
02215000 OCMULGEE RIVER AT US 341, AT HAWKINSVILLE, GA 20 2.60 1,680 100,000 2016-05-30 14:45:00 HAWG1
02215100 TUCSAWHATCHEE CREEK NEAR HAWKINSVILLE, GA 11 1.32 23 11,900 2016-05-30 14:45:00 TSCG1
02215260 OCMULGEE RIVER AT ABBEVILLE, GA 12 3.21 2,170 100,000 2016-05-30 14:45:00 ABBG1
02215500 OCMULGEE RIVER AT LUMBER CITY, GA 15 3.84 3,160 98,400 2016-05-30 14:45:00 LBRG1
02215900 LITTLE OCMULGEE RIVER AT GA 149, AT SCOTLAND, GA 12 0.76 0.40 4,830 2016-05-30 14:15:00 SCTG1
02216180 TURNPIKE CREEK NEAR MCRAE, GA 10 3.56 9.2 4,980 2016-05-30 14:00:00 MCRG1
02217274 WHEELER CREEK AT BILL CHEEK ROAD, NEAR AUBURN, GA 6 1.24 1.1 928 2016-05-30 14:15:00 WLRG1
02217297 MULBERRY CREEK NEAR WINDER, GA 17 1.72 54 2,930 2016-05-30 14:45:00 WNRG1
02217475 MIDDLE OCONEE RIVER NEAR ARCADE, GA 16 2.53 209 13,800 2016-05-30 14:45:00 ACDG1
02217500 MIDDLE OCONEE RIVER NEAR ATHENS, GA 18 1.47 229 19,600 2016-05-30 14:30:00 MOCG1
02217615 NORTH OCONEE R AT WOODBRIDGE RD, NEAR COMMERCE, GA 15 2.12 70 2,070 2016-05-30 14:15:00 CMRG1
02217643 PARKS CREEK AT LYLE FIELD RD NR JEFFERSON, GA 9 2.22 2.2 422 2016-05-30 14:00:00  
02217770 NORTH OCONEE RIVER AT COLLEGE ST, AT ATHENS, GA 19 4.51 164 14,500 2016-05-30 14:00:00 NOCG1
02218300 OCONEE RIVER NEAR PENFIELD, GA 13 3.50 361 61,000 2016-05-30 15:00:00 PNFG1
02218565 APALACHEE RIVER AT FENCE ROAD, NEAR DACULA, GA 8 0.32 3.2 2,190 2016-05-30 14:00:00 DACG1
02219000 APALACHEE RIVER NEAR BOSTWICK, GA 9 1.82 87 11,200 2016-05-30 14:45:00 BWKG1
02220788 LITTLE RIVER AT NEWBORN RD NEAR NEWBORN, GA 12 3.66 15   2016-05-30 14:15:00 NWBG1
02220900 LITTLE RIVER NEAR EATONTON, GA   3.46 73 15,000 2016-05-30 14:30:00 EANG1
02221525 MURDER CREEK BELOW EATONTON, GA 10 1.70 58 9,630 2016-05-30 14:30:00 MTLG1
02223000 OCONEE RIVER AT MILLEDGEVILLE, GA 22 7.79 658 140,000 2016-05-30 14:30:00 MLGG1
02223056 OCONEE RIVER AT AVANT MINE, NEAR OCONEE, GA 18 2.67 657 11,200 2016-05-30 14:45:00 OCOG1
02223110 BUFFALO CREEK AT GA 272, NEAR OCONEE, GA 15 7.37 54 7,540 2016-05-30 14:30:00 BFOG1
02223190 COMMISSIONER CREEK AT US 441, AT MCINTYRE, GA 13 8.76 62 13,000 2016-05-30 14:30:00 MITG1
02223248 OCONEE RIVER NEAR OCONEE, GA 17 2.59 996 96,900 2016-05-30 14:45:00 OCNG1
02223360 BIG SANDY CREEK AT US 441, NEAR IRWINTON, GA 10 3.91 41 4,320 2016-05-30 14:30:00 IWTG1
02223500 OCONEE RIVER AT DUBLIN, GA 21 1.97 864 96,700 2016-05-30 14:45:00 DBNG1
02224500 OCONEE RIVER NEAR MOUNT VERNON, GA 16 3.59 1,920 96,000 2016-05-30 14:00:00 MTVG1
02224940 ALTAMAHA RIVER AT US 221, NR CHARLOTTEVILLE, GA 13 3.43 5,110 210,000 2016-05-30 14:45:00 CHRG1
02225000 ALTAMAHA RIVER NEAR BAXLEY, GA 74.5 5.01 5,710 230,000 2016-05-30 14:45:00 BAXG1
02225270 OHOOPEE RIVER AT GA 297, NEAR SWAINSBORO, GA 18 8.12 26 5,460 2016-05-30 14:30:00 SWOG1
02225500 OHOOPEE RIVER NEAR REIDSVILLE, GA 11 2.83 166 47,000 2016-05-30 14:00:00 REDG1
02226000 ALTAMAHA RIVER AT DOCTORTOWN, GA 12 7.42 6,790 300,000 2016-05-30 14:00:00 DCTG1
02226160 ALTAMAHA RIVER NEAR EVERETT CITY, GA 13 7.12 9,010 300,000 2016-05-30 14:15:00 EVRG1
022261794 BRUNSWICK RIVER AT BRUNSWICK, GA 5.5 -1.55

 

  2016-03-30 09:15:00  
02226180 BRUNSWICK RIVER AT ST. SIMONS ISLAND, GA 5 2.20

 

  2016-05-30 14:45:00 BRNG1
02226362 SATILLA RIVER AT GA 158, NEAR WAYCROSS, GA 14 3.32 43 34,500 2016-05-30 14:30:00 TMOG1
02226500 SATILLA RIVER NEAR WAYCROSS, GA 16 5.36 95 42,100 2016-05-30 14:45:00 AYSG1
02227270 ALABAHA RIVER AT GA 203, NEAR BLACKSHEAR, GA 9 1.60 0.00 21,000 2016-05-30 14:30:00  
02227500 LITTLE SATILLA RIVER NEAR OFFERMAN, GA 9 2.11 1.9 38,000 2016-05-30 14:45:00 OFFG1
02228000 SATILLA RIVER AT ATKINSON, GA 13 4.53 326 110,000 2016-05-30 14:45:00 ATKG1
02228070 SATILLA RIVER AT US 17, AT WOODBINE, GA 4 -0.59 -21,200 2016-05-30 14:00:00 SRWG1
02228295 CUMBERLAND SOUND AT SEA CAMP DOCK, NR ST MARYS, GA 5 0.99

 

  2016-05-30 14:00:00  
02231175 ST MARYS RIVER AT FERRY LANDING NEAR FOLKSTON, GA 10 0.78

 

  2016-05-30 14:15:00  
02231254 ST MARY'S RIVER AT I-95, NEAR KINGSLAND, GA 3.5 -0.10 -18,300 25,800 2016-05-30 14:15:00 KLNG1
02314495 SUWANNEE RIVER ABOVE FARGO, GA   4.16

 

13,200 2016-05-30 14:00:00 FARG1
02314500 SUWANNEE RIVER AT US 441, AT FARGO, GA 104 1.82 67 13,800 2016-05-30 14:00:00 FGOG1
02315920 ALAPAHA RIVER AT GA 125/32 NEAR IRWINVILLE, GA 272 2.17 91 8,860 2016-05-30 14:30:00 IVLG1
02316000 ALAPAHA RIVER NEAR ALAPAHA, GA 223 4.33 107 16,000 2016-05-30 14:00:00 ALAG1
02317500 ALAPAHA RIVER AT STATENVILLE, GA 100 3.48 446 33,400 2016-05-30 14:45:00 STNG1
023177483 WITHLACOOCHEE RIVER AT MCMILLAN RD,NEAR BEMISS, GA 135 1.84 17 37,500 2016-05-30 14:30:00 VDSG1
02317755 WITHLACOOCHEE RIVER AT US 41 NEAR VALDOSTA, GA 125 3.53

 

38,000 2016-05-28 03:30:00 VDRG1
02317797 LITTLE RIVER AT UPPER TY TY ROAD, NEAR TIFTON, GA   0.50 2.2 4,400 2016-05-30 14:15:00 TWCG1
02318000 LITTLE RIVER NEAR ADEL, GA 189 3.12 45 38,800 2016-05-30 14:00:00 ADLG1
02318380 LITTLE RIVER AT GA 122, NEAR HAHIRA, GA 152 4.73 80 45,000 2016-05-30 14:15:00 HRAG1
02318500 WITHLACOOCHEE RIVER AT US 84, NEAR QUITMAN, GA 102 2.26 86 62,000 2016-05-30 14:00:00 QUTG1
02318700 OKAPILCO CREEK AT GA 333, NEAR QUITMAN, GA 119 3.28 2.7 18,500 2016-05-30 14:45:00 OKAG1
02327355 OCHLOCKONEE RIVER AT GA 188, NEAR COOLIDGE, GA 13 2.00 4.6 35,000 2016-05-30 14:30:00  
02327500 OCHLOCKONEE RIVER NEAR THOMASVILLE, GA 15 2.11 22 66,000 2016-05-30 14:45:00 TMLG1
02329342 LITTLE ATTAPULGUS CREEK AT ATTAPULGUS, GA   1.34 7.3 175 2016-05-30 15:00:00 ATPG1
02330450 CHATTAHOOCHEE RIVER AT HELEN, GA 6 0.67 77 10,500 2016-05-30 14:00:00 HDCG1
02331000 CHATTAHOOCHEE RIVER NEAR LEAF, GA   1.88 244 22,500 2016-05-30 14:45:00 CTHG1
023312495 SOQUE RIVER AT GA 197, NEAR CLARKESVILLE, GA 12 3.83 154 4,730 2016-05-30 14:00:00 CSQG1
02331600 CHATTAHOOCHEE RIVER NEAR CORNELIA, GA 14 0.96 407 27,000 2016-05-30 14:45:00 DCNG1
02333500 CHESTATEE RIVER NEAR DAHLONEGA, GA 19 1.22 196 22,700 2016-05-30 14:45:00 DGAG1
02334400 LAKE SIDNEY LANIER NEAR BUFORD, GA   1069.21

 

  2016-05-30 14:15:00 CMMG1
02334401 CHATTAHOOCHEE RIVER (BUFORD DAM) NR BUFORD, GA   912.27

 

  2016-05-30 14:15:00 BDTG1
02334430 CHATTAHOOCHEE RIVER AT BUFORD DAM, NEAR BUFORD, GA 12 -0.53 636 12,800 2016-05-30 14:45:00 BUFG1
02334480 RICHLAND CREEK AT SUWANEE DAM ROAD, NEAR BUFORD,GA 10 0.51 9.4 3,090 2016-05-30 14:30:00 RLCG1
02334578 LEVEL CREEK AT SUWANEE DAM ROAD, NEAR SUWANEE, GA 9 3.41 4.6 2,800 2016-05-30 14:15:00 SWAG1
02334620 DICK CREEK AT OLD ATLANTA RD, NEAR SUWANEE, GA 10 0.85 4.4 1,680 2016-05-30 14:00:00 DICG1
02334653 CHATTAHOOCHEE R 0.76 MI US MCGINNIS FY SUWANEE GA 22 1.72 718 10,900 2016-05-30 14:30:00  
02334885 SUWANEE CREEK AT SUWANEE, GA 8 1.13 30 7,870 2016-05-30 14:15:00 SWEG1
02335000 CHATTAHOOCHEE RIVER NEAR NORCROSS, GA 12 1.89 860 55,000 2016-05-30 14:15:00 NCRG1
02335350 CROOKED CREEK NEAR NORCROSS, GA 11 3.68 4.8 2,740 2016-05-30 15:00:00 CRKG1
02335450 CHATTAHOOCHEE RIVER ABOVE ROSWELL, GA 9 3.40 1,230 21,100 2016-05-30 14:00:00 RWLG1
02335580 BIG CREEK AT GA 9, NEAR CUMMING, GA 6 1.05 30 4,800 2016-05-30 14:45:00 CMGG1
02335700 BIG CREEK NEAR ALPHARETTA, GA 7 2.21 44 6,100 2016-05-30 14:45:00 APHG1
02335757 BIG CREEK BELOW HOG WALLOW CREEK AT ROSWELL, GA 10 2.65 52 6,240 2016-05-30 14:15:00 RWSG1
02335790 WILLEO CREEK AT GA 120, NEAR ROSWELL, GA 12 0.93 7.3 6,200 2016-05-30 14:45:00 WLOG1
02335810 CHATTAHOOCHEE RIVER AT MORGAN FALLS DAM, GA   865.40

 

  2016-05-30 14:15:00 MFPG1
02335815 CHATTAHOOCHEE RIVER BELOW MORGAN FALLS DAM, GA 821 810.91 974 35,500 2016-05-30 14:45:00 MGFG1
023358685 SEWELL MILL CREEK AT GA 120, NEAR MARIETTA, GA 11 1.38 5.3 4,570 2016-05-30 14:30:00 SMCG1
02335870 SOPE CREEK NEAR MARIETTA, GA 12 1.11 14 9,500 2016-05-30 14:45:00 MARG1
02335880 CHATT R AT POWERS FY & I-285 NR ATLANTA, GA   4.92

 

63,000 2016-05-30 14:30:00  
02335910 ROTTENWOOD CR AT INTERSTATE N PKWY, NR SMYRNA, GA 14 2.28 8.4 4,500 2016-05-30 14:00:00 SMAG1
02335990 CHATTAHOOCHEE RIVER AT US 41, AT ATLANTA, GA 14 4.35

 

28,900 2016-05-30 14:45:00 VIXG1
02336000 CHATTAHOOCHEE RIVER AT ATLANTA, GA 14 2.81 1,010 64,000 2016-05-30 14:45:00 VING1
02336030 N.F. PEACHTREE CREEK AT GRAVES RD, NR DORAVILLE,GA 12 1.68 0.58 2,850 2016-05-30 14:00:00 NFPG1
02336120 N.F. PEACHTREE CREEK, BUFORD HWY, NEAR ATLANTA, GA 13 3.80 10 6,140 2016-05-30 14:15:00 NPBG1
02336152 SOUTH FORK PEACHTREE AT CASA RD, NR CLARKSTON, GA 10 3.18 2.2   2016-05-30 14:15:00 SFPG1
023362095 BURNT FORK CR AT MILLWOOD WAY NEAR CLARKSTON, GA 9 1.16 0.51 1,020 2016-05-30 14:00:00  
02336240 S.F. PEACHTREE CREEK JOHNSON RD, NEAR ATLANTA, GA 13 3.46 12 4,900 2016-05-30 14:15:00 SPJG1
02336300 PEACHTREE CREEK AT ATLANTA, GA 17 2.35 26 21,000 2016-05-30 14:00:00 AANG1
02336313 WOODALL CREEK AT DEFOORS FERRY RD, AT ATLANTA, GA 15 0.50 0.73 2016-05-30 14:45:00 WDCG1
02336340 NANCY CREEK AT JOHNSON FERRY RD, AT CHAMBLEE, GA 16 4.02 7.0 4,200 2016-05-30 14:30:00  
02336360 NANCY CREEK AT RICKENBACKER DRIVE, AT ATLANTA, GA 11 0.86 9.5 4,500 2016-05-30 14:15:00 NCKG1
02336410 NANCY CREEK AT WEST WESLEY ROAD, AT ATLANTA, GA 12 1.69 11 6,440 2016-05-30 14:15:00 NANG1
02336490 CHATTAHOOCHEE RIVER AT GA 280, NEAR ATLANTA, GA 24 3.89 955 42,300 2016-05-30 14:00:00 CHAG1
02336517 PROCTOR CREEK AT HORTENSE WAY, AT ATLANTA, GA 12 1.16

 

4,200 2016-05-30 14:15:00  
023365218 PROCTOR CREEK TRIB AT SPRING RD, AT ATLANTA, GA   4.39

 

  2016-05-30 14:15:00  
02336526 PROCTOR CREEK AT JACKSON PARKWAY, AT ATLANTA, GA 13 3.13 4.0 8,000 2016-05-30 14:15:00 PRCG1
02336635 NICKAJACK CREEK AT US 78/278, NEAR MABLETON, GA 10 2.00 20 7,500 2016-05-30 14:00:00 NICG1
02336728 UTOY CREEK AT GREAT SOUTHWEST PKWY NR ATLANTA, GA 18 2.86 13 1,240 2016-05-30 14:15:00 UTYG1
02336840 SWEETWATER CREEK,BROWNSVILLE RD,POWDER SPRINGS,GA 13 3.16 27 30,000 2016-05-30 14:45:00 PDSG1
02336870 POWDER SPRINGS CREEK NEAR POWDER SPRINGS, GA 11 1.46 7.3 8,940 2016-05-30 14:45:00 POWG1
02336910 SWEETWATER CR 0.05 MI US RR BRIDGE AT AUSTELL, GA 19 5.59 64 2,970 2016-05-30 14:45:00 NATG1
02336968 NOSES CREEK AT POWDER SPRINGS RD,POWDER SPRINGS,GA 11 1.83 8.1 3,000 2016-05-30 14:30:00 NOSG1
02336986 OLLEY CREEK AT CLAY ROAD, NEAR AUSTELL, GA 12 2.05 5.0 638 2016-05-30 14:45:00 OLYG1
02337000 SWEETWATER CREEK NEAR AUSTELL, GA 10 1.05 67 31,500 2016-05-30 14:45:00 AUSG1
02337040 SWEETWATER CREEK BELOW AUSTELL, GA   0.97 65   2016-05-30 15:00:00 ASTG1
02337170 CHATTAHOOCHEE RIVER NEAR FAIRBURN, GA   0.32 1,210 75,000 2016-05-30 14:30:00 FBNG1
02337410 DOG RIVER AT GA 5, NEAR FAIRPLAY, GA 13 3.43 37 59,900 2016-05-30 14:15:00 DOGG1
02337498 SNAKE CRK DS SNAKE CRK RESERVIOR NR WHITESBURG, GA 13 3.42 18 1,500 2016-05-30 14:00:00 WHGG1
02337500 SNAKE CREEK NEAR WHITESBURG, GA 12 1.90 14 13,500 2016-05-30 14:45:00 SNKG1
02338000 CHATTAHOOCHEE RIVER NEAR WHITESBURG, GA 17 3.34 1,790 95,000 2016-05-30 14:15:00 WHTG1
02338500 CHATTAHOOCHEE RIVER AT GA 100, AT FRANKLIN, GA 23 9.52 1,760 105,000 2016-05-30 14:00:00 FRNG1
02338523 HILLABAHATCHEE CREEK AT THAXTON RD, NR FRANKLIN,GA 12 2.05 16 2,720 2016-05-30 14:45:00 HILG1
02338660 NEW RIVER AT GA 100, NEAR CORINTH, GA   3.36 30 10,000 2016-05-30 15:00:00 NRVG1
02338840 YELLOWJACKET CREEK-HAMMETT RD, BLW HOGANSVILLE, GA 8 0.93 29 4,240 2016-05-30 14:30:00 YJCG1
02339400 WEST POINT LAKE NEAR WEST POINT, GA 641 631.79

 

  2016-05-30 14:15:00 WETG1
02339402 CHATTAHOOCHEE RIVER BELOW WEST POINT DAM, GA   561.59

 

  2016-05-30 14:15:00  
02339500 CHATTAHOOCHEE RIVER AT WEST POINT, GA 17 4.84 5,800 134,000 2016-05-30 14:00:00 WTPG1
02341460 CHATTAHOOCHEE RIVER AT 14TH ST, AT COLUMBUS, GA 27 16.59 1,400 44,700 2016-05-30 14:00:00  
02341505 CHATTAHOOCHEE RIVER AT US 280, NEAR COLUMBUS, GA   6.21 *** 150,000 2014-07-01 23:45:00 CMUG1
02341725 PINE KNOT CREEK NEAR EELBEECK, GA   1.18 61 1,120 2012-09-29 23:45:00 PKCG1
02341750 RANDALL CREEK NEAR UPATOI, GA   3.17 2.8 564 2012-05-15 23:45:00 RDLG1
02341800 UPATOI CREEK NEAR COLUMBUS, GA   3.88 163 46,300 2016-05-30 14:30:00 UPAG1
02341910 OCHILLEE CREEK AT OCHILLEE, GA   1.39 187 1,720 2012-05-15 00:45:00 OCHG1
02342850 HANNAHATCHEE CREEK AT UNION ROAD, AT UNION, GA 16 1.57 43 7,600 2016-05-30 14:45:00 UNIG1
02342881 CHATTAHOOCHEE RIVER AT SPUR 39, NEAR OMAHA, GA   187.77 1,680 72,500 2016-05-30 14:30:00 OMHG1
02343225 PATAULA CREEK NEAR GEORGETOWN, GA   3.06 164 65,000 2016-05-30 14:45:00 MRSG1
02343240 WALTER F. GEORGE RESERVOIR NEAR FORT GAINES, GA   188.08

 

  2016-05-30 14:15:00 FOGG1
02343241 CHATTAHOOCHEE R BELOW WFG DAM AB FT. GAINES, GA 134 102.90

 

  2016-05-30 14:15:00  
023432415 CHATTAHOOCHEE R .36 MI DS WFG DAM NR FT GAINES, GA   103.01 6,670 82,400 2016-05-30 14:30:00 FPHA1
02343801 CHATTAHOOCHEE RIVER NEAR COLUMBIA, AL 106 76.45

 

202,000 2016-05-30 14:00:00 COLA1
02343805 CHATTAHOOCHEE RIVER AT MILE 46 NEAR COLUMBIA, ALA   76.18 1,160 102,000 2016-05-30 14:45:00 CDRA1
02343940 SAWHATCHEE CREEK AT CEDAR SPRINGS, GA   2.86 35 5,380 2016-05-30 14:15:00 CEDG1
02344280 CAMP CREEK AT HELMER ROAD, NEAR FAYETTEVILLE, GA 7 0.86 9.1   2016-05-30 14:15:00  
02344327 MORNING CRK AT WESTBRIDGE RD, NR FAYETTEVILLE, GA 14 4.13 11   2016-05-30 14:15:00  
02344350 FLINT RIVER NEAR LOVEJOY, GA 12 1.88 39 19,000 2016-05-30 14:45:00 LOVG1
02344396 FLINT RIVER AT WOOLSEY ROAD, NEAR WOOLSEY, GA 48 38.87 37 9,780 2016-05-30 14:45:00 WSEG1
02344423 LAKE HORTON (HEADWATER) NEAR FAYETTEVILLE, GA   779.00

 

  2016-05-30 14:15:00  
02344424 LAKE HORTON (TAILRACE) NEAR FAYETTEVILLE, GA   746.30

 

  2016-05-30 14:15:00  
02344478 SHOAL CREEK AT SHOAL CREEK ROAD, NEAR GRIFFIN, GA 7 0.59 3.9 1,520 2016-05-30 14:45:00 SHLG1
02344500 FLINT RIVER NEAR GRIFFIN, GA 12 2.72 56 31,500 2016-05-30 14:45:00 GRFG1
02344605 LINE CREEK BELOW GA 54, NEAR PEACHTREE CITY, GA 12 3.27 11 1,880 2016-05-30 14:00:00 PHCG1
02344620 SHOAL CREEK AT GA54, NEAR SHARPSBURG, GA 10 2.10 7.5 648 2016-05-30 14:30:00 SHPG1
02344630 LINE CREEK BLW LAKE MCINTOSH, NR PEACHTREE CITY,GA 10 1.52 10   2016-05-30 14:00:00 LMCG1
02344650 LAKE KEDRON NEAR PEACHTREE CITY, GA   835.35

 

  2016-05-30 14:15:00  
02344655 FLAT CR DS OF LAKE KEDRON, NR PEACHTREE CITY, GA 10 2.39 4.9 208 2016-05-30 14:15:00  
02344671 LAKE PEACHTREE (HEADWATER) AT PEACHTREE CITY, GA   784.55

 

  2016-05-30 14:15:00  
02344673 FLAT CREEK (DS OF LAKE) AT PEACHTREE CITY, GA 10 2.25

 

106 2016-05-30 14:15:00  
02344700 LINE CREEK NEAR SENOIA, GA 10 1.37 14 28,400 2016-05-30 14:45:00 LING1
02344724 WHITEWATER CREEK AT EASTIN RD, NR FAYETTEVILLE, GA 10 2.47 3.6   2016-05-30 14:15:00  
02344736 WHITEWATER CR AT SHERWOOD RD, NR FAYETTEVILLE, GA 12 4.20

 

  2016-05-30 14:15:00  
02344748 WHITEWATER CR (DS STARRS MILL DAM)FAYETTEVILLE, GA 10 1.16 26   2016-05-30 14:15:00  
02344872 FLINT RIVER BELOW BIG BRANCH, NEAR MOLENA, GA 28 5.11 166 28,700 2016-05-30 14:00:00 MOLG1
02346310 POTATO CREEK AT COUNTY LINE RD, NR ORCHARD HILL,GA 11 5.14 4.4 1,810 2016-05-30 14:15:00 POTG1
02347500 FLINT RIVER AT US 19, NEAR CARSONVILLE, GA 18 2.33 739 100,000 2016-05-30 14:45:00 CLUG1
02349605 FLINT RIVER AT GA 26, NEAR MONTEZUMA, GA 20 2.10 1,450 136,000 2016-05-30 14:15:00 MNTG1
02349900 TURKEY CREEK AT BYROMVILLE, GA 10 4.68 6.2 5,820 2016-05-30 14:45:00 BVLG1
02350512 FLINT RIVER AT GA 32, NEAR OAKFIELD, GA 23 2.42 726 112,000 2016-05-30 14:45:00 OKFG1
02350600 KINCHAFOONEE CREEK AT PRESTON, GA 7 1.82 53 14,500 2016-05-30 14:00:00 PRSG1
02350900 KINCHAFOONEE CREEK AT PINEWOOD ROAD, NR DAWSON, GA 13 3.54 196 29,500 2016-05-30 14:45:00 DSNG1
02351500 MUCKALEE CREEK NEAR AMERICUS, GA 10 2.06 50 33,500 2016-05-30 14:45:00 MUCG1
02351890 MUCKALEE CREEK AT GA 195, NEAR LEESBURG, GA 13 3.71 113 64,400 2016-05-30 14:45:00 MCKG1
02352500 FLINT RIVER AT ALBANY, GA 26 1.84 871 120,000 2016-05-30 14:45:00 ABNG1
02353000 FLINT RIVER AT NEWTON, GA 24 6.22 3,780 100,000 2016-05-30 14:45:00 NEWG1
02353265 ICHAWAYNOCHAWAY CREEK AT GA 37, NEAR MORGAN, GA   6.75 113 10,000 2016-05-30 14:00:00 MGNG1
02353400 PACHITLA CREEK NEAR EDISON, GA 7.8 2.60 68 43,000 2016-05-30 14:45:00 PCHG1
02353500 ICHAWAYNOCHAWAY CREEK AT MILFORD, GA 11 1.10 255 53,000 2016-05-30 14:00:00 MLFG1
02354350 CHICKASAWHATCHEE CREEK NEAR ALBANY, GA   1.70 13 349 2016-05-30 14:45:00  
02354475 SPRING CREEK NEAR LEARY, GA   1.78 4.0 55.0 2016-05-30 14:00:00 LESG1
02354500 CHICKASAWHATCHEE CREEK AT ELMODEL, GA   0.00 25 16,000 2016-05-30 14:15:00 ELMG1
02354800 ICHAWAYNOCHAWAY CREEK NEAR ELMODEL, GA 18 4.25 317 29,200 2016-05-30 14:00:00 EMOG1
02355350 ICHAWAYNOCHAWAY CREEK BELOW NEWTON, GA 17 3.00 381 31,000 2016-05-30 14:30:00 ICHG1
02355662 FLINT RIVER AT RIVERVIEW PLANTATION, NR HOPEFUL,GA 30 5.57 3,520 64,600 2016-05-30 14:00:00 HOPG1
02356000 FLINT RIVER AT BAINBRIDGE, GA 25 18.57 3,780 108,000 2016-05-30 14:45:00 BGEG1
02356638 SPRING CREEK APPROX .25 MI US US27 NR COLQUITT, GA 10 2.76 64 2016-05-30 14:30:00  
02357000 SPRING CREEK NEAR IRON CITY, GA 16 3.42 153 34,500 2016-05-30 14:00:00 IRCG1
02357150 SPRING CREEK NEAR REYNOLDSVILLE, GA   76.54 619   2016-05-30 14:30:00 REYG1
02357500 LAKE SEMINOLE NEAR CHATTAHOOCHEE, FL   76.35

 

  2016-05-30 14:45:00  
02357700 APALACHICOLA RIVER BL WOODRUFF DAM, NR SNEADS, FL 66 43.77

 

  2016-05-30 14:45:00 WDRF1
02379500 CARTECAY RIVER NEAR ELLIJAY, GA 7 1.83 188 20,000 2016-05-30 14:30:00 EECG1
02380500 COOSAWATTEE RIVER NEAR ELLIJAY, GA 8 1.81 284 25,000 2016-05-30 14:45:00 ELIG1
02381090 MOUNTAINTOWN CREEK AT GA 282, NEAR ELLIJAY, GA 12 3.38 113 2,530 2016-05-30 14:15:00 MNCG1
02381400 CARTERS LAKE NEAR CARTERS, GA   1072.98

 

  2016-05-30 14:15:00 CTRG1
02381401 CARTERS LAKE TAILRACE NEAR CARTERS, GA   683.22

 

  2016-05-30 14:15:00 CLTG1
02381600 FAUSETT CREEK NEAR TALKING ROCK, GA 10 1.36 18 3,160 2016-05-30 14:45:00 FCTG1
02382200 TALKING ROCK CREEK NEAR HINTON, GA 10 1.28 85 19,000 2016-05-30 14:45:00 TKRG1
02382400 CARTERS RE-REGULATION LAKE NEAR CARTERS, GA   32.14

 

2016-05-30 14:15:00 CTSG1
02382500 COOSAWATTEE RIVER AT CARTERS, GA 20 4.91 725 57,000 2016-05-30 14:30:00 CATG1
02383500 COOSAWATTEE RIVER NEAR PINE CHAPEL, GA 25 5.21 804 40,200 2016-05-30 15:00:00 RDBG1
02383520 COOSAWATTEE RIVER AT PINE CHAPEL, GA 22 2.36

 

40,200 2016-05-30 15:00:00 PING1
02384500 CONASAUGA RIVER AT GA 286, NEAR ETON, GA 12 2.83 78 33,200 2016-05-30 15:00:00 ETNG1
02384540 MILL CREEK NEAR CRANDALL, GA 8 1.30 3.1 2,240 2016-05-30 14:45:00 CNDG1
02385170 COAHULLA CREEK AT KEITHS MILL ROAD, NEAR DALTON,GA 16 7.60 31 1,860 2016-05-30 14:45:00 CHCG1
02385500 MILL CREEK AT DALTON, GA 11 4.34 17 5,680 2016-05-30 15:00:00 DLNG1
02385800 HOLLY CREEK NEAR CHATSWORTH, GA   1.24 33 20,600 2016-05-30 15:00:00 HOLG1
02387000 CONASAUGA RIVER AT TILTON, GA 18 2.66 186 40,000 2016-05-30 15:00:00 TLNG1
02387010 CONASAUGA RIVER AT SLOAN BRIDGE, BELOW DALTON, GA 18 0.26

 

36,800 2016-05-30 15:00:00 DLBG1
02387500 OOSTANAULA RIVER AT RESACA, GA 22 3.17 1,020 68,600 2016-05-30 14:15:00 RSCG1
02387520 OOSTANAULA RIVER AT CALHOUN, GA 21 3.89

 

45,500 2016-05-30 14:15:00 CALG1
02387600 OOTHKALOOGA CREEK AT GA 53 SPUR, AT CALHOUN, GA 18 7.13 32 2,790 2016-05-30 15:00:00 OTKG1
02388320 HEATH CREEK NEAR ARMUCHEE, GA 8 1.23 2.8 1,240 2016-05-30 14:45:00 ARMG1
02388350 ARMUCHEE CREEK AT OLD DALTON ROAD, NEAR ROME, GA 19 4.04 74 10,200 2016-05-30 14:45:00 ARCG1
02388500 OOSTANAULA RIVER NEAR ROME, GA 30 5.49 1,080 70,000 2016-05-30 14:45:00 RGAG1
02388525 OOSTANAULA RIVER AT US 27, AT ROME, GA 25 4.05

 

  2016-05-30 14:45:00 RTMG1
02388900 ETOWAH RIVER NEAR DAHLONEGA, GA   3.63 260 9,680 2014-04-23 23:45:00 BUCG1
02388975 ETOWAH RIVER AT GA 136, NEAR LANDDRUM, GA 14 2.30 165 4,800 2016-05-30 14:45:00 LANG1
02389150 ETOWAH RIVER AT GA 9, NEAR DAWSONVILLE, GA 13 4.36 219 6,100 2016-05-30 14:00:00 DWSG1
02390000 AMICALOLA CREEK NEAR DAWSONVILLE, GA. 10 0.76 135 7,450 2016-05-30 14:15:00 DONG1
02390050 ETOWAH RIVER AT KELLY BRIDGE ROAD, NEAR MATT, GA 19 1.85 342 7,590 2016-05-30 15:00:00  
02390140 SETTINGDOWN CREEK NEAR BALL GROUND, GA 13 1.66 43 1,200 2016-05-30 14:15:00 FREG1
02390475 LONG SWAMP CREEK AT REAVIS MTN RD, NR NELSON, GA 21 3.58 58 2,660 2016-05-30 14:15:00 BGDG1
02391540 SHARP MTN CREEK AT OLD GA 5, BELOW BALL GROUND, GA 18 3.52 73 1,600 2016-05-30 14:15:00 BALG1
02391840 HICKORY LOG CREEK NEAR CANTON, GA 8 0.92 7.7 550 2016-05-30 14:00:00 HLCG1
02391860 ETOWAH RIVER DOWNSTREAM OF I-575, AT CANTON, GA 17 3.44 715 15,400 2016-05-30 14:45:00 ECTG1
02392000 ETOWAH RIVER AT CANTON, GA 16 2.53 722 36,700 2016-05-30 14:15:00 CNNG1
02392360 SHOAL CREEK AT GA 108, NEAR WALESKA, GA 14 2.43 38 2,510 2016-05-30 14:15:00 WALG1
02392780 LITTLE RIVER AT GA 5, NEAR WOODSTOCK, GA 11 0.96 56 16,100 2016-05-30 14:15:00 WODG1
02392950 NOONDAY CREEK AT HAWKINS STORE RD, NR WOODSTOCK,GA 11 0.72 6.2 11,900 2016-05-30 14:30:00 NDYG1
02392975 NOONDAY CREEK AT SHALLOWFORD ROAD, NR WOODSTOCK,GA 10 1.44 12 11,400 2016-05-30 14:30:00 NOOG1
02393377 BUTLER CREEK AT MACK DOBBS ROAD, NR KENNESAW, GA 11 2.25 0.95 6,760 2016-05-30 14:00:00 BTCG1
02393419 ALLATOONA CREEK AT STILESBORO RD, NEAR ACWORTH, GA 13 4.98 4.7 16,600 2016-05-30 14:15:00 MAHG1
02393500 ALLATOONA LAKE NEAR CARTERSVILLE, GA   839.99

 

  2016-05-30 14:15:00 CVLG1
02393501 ETOWAH RIVER ALLATOONA DAM TW, ABV CARTERSVILLE,GA   690.73

 

  2016-05-30 14:15:00 ADTG1
02394000 ETOWAH RIVER AT ALLATOONA DAM, ABV CARTERSVILLE,GA   1.68 1,110 40,400 2016-05-30 14:45:00 ETWG1
02394670 ETOWAH RIVER AT GA 61, NEAR CARTERSVILLE, GA 18 6.18 1,170 55,000 2016-05-30 14:00:00 CTVG1
02394682 RICHLAND CREEK AT OLD DALLAS RD, NEAR DALLAS, GA   1.31

 

  2016-05-30 14:30:00  
02394820 EUHARLEE CREEK AT US 278, AT ROCKMART, GA 9 2.03 12 7,000 2016-05-30 14:30:00 RKMG1
02395000 ETOWAH RIVER NEAR KINGSTON,GA 20 4.70 1,580 52,000 2016-05-30 15:00:00 KGTG1
02395120 TWO RUN CREEK NEAR KINGSTON, GA 8 1.27 7.0 4,300 2016-05-30 15:00:00 KTRG1
02395980 ETOWAH RIVER AT GA 1 LOOP, NEAR ROME, GA 32 13.85 1,390 55,000 2016-05-30 15:00:00 ROEG1
02395996 ETOWAH RIVER AT COOSA VALLEY F.G., AT ROME, GA 32 6.09

 

  2016-05-30 15:00:00 ERRG1
02397000 COOSA RIVER (MAYO'S BAR) NEAR ROME, GA 24 11.78 2,780 100,000 2016-05-30 14:45:00 RMBG1
02397410 CEDAR CREEK AT GA AVE, AT CEDARTOWN, GA 15 2.58 4.8 16,500 2016-05-30 14:30:00 CTWG1
02397500 CEDAR CREEK NEAR CEDARTOWN, GA 11 0.66 38 17,000 2016-05-30 14:45:00 CCDG1
02397530 COOSA RIVER AT STATE LINE, AL/GA   14.24 2,960   2016-05-30 14:45:00 COOG1
02398000 CHATTOOGA RIVER AT SUMMERVILLE, GA 14 2.36 108 30,100 2016-05-30 14:45:00 SUMG1
02411930 TALLAPOOSA RIVER BELOW TALLAPOOSA, GEORGIA 16 1.69 157 6,090 2016-05-30 14:00:00 TLAG1
02413000 LITTLE TALLAPOOSA RIVER AT US 27, AT CARROLLTON,GA 18 2.59 46 6,210 2016-05-30 14:00:00 CANG1
02413210 LITTLE TALLAPOOSA R AT GA 100, NEAR BOWDON, GA 17 2.94 129 4,310 2016-05-30 14:00:00 BWNG1
03544970 HIWASSEE RIVER AT RIVERSIDE DR, NR HIAWASSEE, GA 10 2.89 68 2,610 2016-05-30 14:45:00 HWEG1
03550500 NOTTELY RIVER NEAR BLAIRSVILLE, GA 13 1.84 96 12,900 2016-05-30 14:45:00 BRVG1
03567340 WEST CHICKAMAUGA CR AT GA 146, NEAR LAKEVIEW, GA 11 0.84 40 7,170 2016-05-30 14:15:00 WCKG1
03568933 LOOKOUT CREEK NEAR NEW ENGLAND, GA 12 3.38 37 20,000 2016-05-30 15:00:00 ENGG1